sensor_id;sensor_type;location;lat;lon;timestamp;P1;durP1;ratioP1;P2;durP2;ratioP2
2129;SDS011;1071;52.544;13.374;2024-02-28T00:01:50;17.63;;;13.30;;
2129;SDS011;1071;52.544;13.374;2024-02-28T00:04:18;15.45;;;11.77;;
2129;SDS011;1071;52.544;13.374;2024-02-28T00:06:45;17.15;;;12.50;;
2129;SDS011;1071;52.544;13.374;2024-02-28T00:09:12;17.98;;;12.07;;
2129;SDS011;1071;52.544;13.374;2024-02-28T00:11:41;18.33;;;13.55;;
2129;SDS011;1071;52.544;13.374;2024-02-28T00:14:10;18.52;;;12.18;;
2129;SDS011;1071;52.544;13.374;2024-02-28T00:16:39;17.90;;;12.05;;
2129;SDS011;1071;52.544;13.374;2024-02-28T00:19:08;16.98;;;11.85;;
2129;SDS011;1071;52.544;13.374;2024-02-28T00:21:36;15.68;;;12.82;;
2129;SDS011;1071;52.544;13.374;2024-02-28T00:24:03;16.15;;;11.82;;
2129;SDS011;1071;52.544;13.374;2024-02-28T00:26:31;16.63;;;11.75;;
2129;SDS011;1071;52.544;13.374;2024-02-28T00:28:58;21.08;;;14.32;;
2129;SDS011;1071;52.544;13.374;2024-02-28T00:31:25;16.40;;;12.88;;
2129;SDS011;1071;52.544;13.374;2024-02-28T00:33:52;14.20;;;11.13;;
2129;SDS011;1071;52.544;13.374;2024-02-28T00:36:21;16.95;;;12.45;;
2129;SDS011;1071;52.544;13.374;2024-02-28T00:38:48;17.45;;;12.55;;
2129;SDS011;1071;52.544;13.374;2024-02-28T00:41:16;16.02;;;11.85;;
2129;SDS011;1071;52.544;13.374;2024-02-28T00:43:43;18.58;;;13.02;;
2129;SDS011;1071;52.544;13.374;2024-02-28T00:46:10;17.45;;;12.93;;
2129;SDS011;1071;52.544;13.374;2024-02-28T00:48:37;17.88;;;11.68;;
2129;SDS011;1071;52.544;13.374;2024-02-28T00:51:04;19.85;;;13.70;;
2129;SDS011;1071;52.544;13.374;2024-02-28T00:53:34;19.80;;;12.85;;
2129;SDS011;1071;52.544;13.374;2024-02-28T00:56:01;16.00;;;12.13;;
2129;SDS011;1071;52.544;13.374;2024-02-28T00:58:29;15.80;;;11.48;;
2129;SDS011;1071;52.544;13.374;2024-02-28T01:00:56;15.02;;;11.45;;
2129;SDS011;1071;52.544;13.374;2024-02-28T01:03:23;13.70;;;12.07;;
2129;SDS011;1071;52.544;13.374;2024-02-28T01:05:50;18.50;;;13.00;;
2129;SDS011;1071;52.544;13.374;2024-02-28T01:08:17;16.35;;;11.07;;
2129;SDS011;1071;52.544;13.374;2024-02-28T01:10:46;16.38;;;14.07;;
2129;SDS011;1071;52.544;13.374;2024-02-28T01:13:13;16.27;;;11.82;;
2129;SDS011;1071;52.544;13.374;2024-02-28T01:15:40;17.83;;;11.25;;
2129;SDS011;1071;52.544;13.374;2024-02-28T01:18:08;21.77;;;13.65;;
2129;SDS011;1071;52.544;13.374;2024-02-28T01:20:35;16.50;;;12.63;;
2129;SDS011;1071;52.544;13.374;2024-02-28T01:23:05;16.90;;;11.60;;
2129;SDS011;1071;52.544;13.374;2024-02-28T01:25:32;20.88;;;14.95;;
2129;SDS011;1071;52.544;13.374;2024-02-28T01:28:00;20.63;;;13.55;;
2129;SDS011;1071;52.544;13.374;2024-02-28T01:30:27;21.35;;;13.52;;
2129;SDS011;1071;52.544;13.374;2024-02-28T01:32:54;18.85;;;12.38;;
2129;SDS011;1071;52.544;13.374;2024-02-28T01:35:24;17.73;;;12.50;;
2129;SDS011;1071;52.544;13.374;2024-02-28T01:37:51;18.05;;;13.00;;
2129;SDS011;1071;52.544;13.374;2024-02-28T01:40:18;16.02;;;11.93;;
2129;SDS011;1071;52.544;13.374;2024-02-28T01:42:46;16.88;;;11.63;;
2129;SDS011;1071;52.544;13.374;2024-02-28T01:45:14;18.58;;;11.48;;
2129;SDS011;1071;52.544;13.374;2024-02-28T01:47:41;15.98;;;10.57;;
2129;SDS011;1071;52.544;13.374;2024-02-28T01:50:09;14.45;;;10.93;;
2129;SDS011;1071;52.544;13.374;2024-02-28T01:52:37;15.73;;;11.25;;
2129;SDS011;1071;52.544;13.374;2024-02-28T01:55:05;17.08;;;11.60;;
2129;SDS011;1071;52.544;13.374;2024-02-28T01:57:33;15.15;;;10.52;;
2129;SDS011;1071;52.544;13.374;2024-02-28T02:00:02;14.10;;;10.40;;
2129;SDS011;1071;52.544;13.374;2024-02-28T02:02:31;14.32;;;9.27;;
2129;SDS011;1071;52.544;13.374;2024-02-28T02:04:58;12.57;;;9.38;;
2129;SDS011;1071;52.544;13.374;2024-02-28T02:07:26;12.43;;;9.10;;
2129;SDS011;1071;52.544;13.374;2024-02-28T02:09:54;12.00;;;9.23;;
2129;SDS011;1071;52.544;13.374;2024-02-28T02:12:27;12.75;;;9.65;;
2129;SDS011;1071;52.544;13.374;2024-02-28T02:14:54;12.27;;;9.02;;
2129;SDS011;1071;52.544;13.374;2024-02-28T02:17:22;13.13;;;9.48;;
2129;SDS011;1071;52.544;13.374;2024-02-28T02:19:50;16.23;;;9.90;;
2129;SDS011;1071;52.544;13.374;2024-02-28T02:22:18;10.35;;;8.35;;
2129;SDS011;1071;52.544;13.374;2024-02-28T02:24:48;11.60;;;8.27;;
2129;SDS011;1071;52.544;13.374;2024-02-28T02:27:15;14.48;;;9.00;;
2129;SDS011;1071;52.544;13.374;2024-02-28T02:29:46;11.18;;;8.63;;
2129;SDS011;1071;52.544;13.374;2024-02-28T02:32:13;11.32;;;8.10;;
2129;SDS011;1071;52.544;13.374;2024-02-28T02:34:40;8.98;;;7.13;;
2129;SDS011;1071;52.544;13.374;2024-02-28T02:37:07;11.00;;;7.53;;
2129;SDS011;1071;52.544;13.374;2024-02-28T02:39:35;8.20;;;7.35;;
2129;SDS011;1071;52.544;13.374;2024-02-28T02:42:06;8.73;;;7.75;;
2129;SDS011;1071;52.544;13.374;2024-02-28T02:44:33;9.60;;;7.25;;
2129;SDS011;1071;52.544;13.374;2024-02-28T02:47:01;12.38;;;7.97;;
2129;SDS011;1071;52.544;13.374;2024-02-28T02:49:28;8.35;;;7.03;;
2129;SDS011;1071;52.544;13.374;2024-02-28T02:51:55;9.73;;;7.03;;
2129;SDS011;1071;52.544;13.374;2024-02-28T02:54:22;9.55;;;8.25;;
2129;SDS011;1071;52.544;13.374;2024-02-28T02:56:55;8.98;;;7.03;;
2129;SDS011;1071;52.544;13.374;2024-02-28T02:59:24;9.77;;;6.95;;
2129;SDS011;1071;52.544;13.374;2024-02-28T03:01:52;11.73;;;6.95;;
2129;SDS011;1071;52.544;13.374;2024-02-28T03:04:19;8.85;;;6.93;;
2129;SDS011;1071;52.544;13.374;2024-02-28T03:06:46;9.82;;;7.68;;
2129;SDS011;1071;52.544;13.374;2024-02-28T03:09:13;10.45;;;7.55;;
2129;SDS011;1071;52.544;13.374;2024-02-28T03:11:40;9.60;;;7.22;;
2129;SDS011;1071;52.544;13.374;2024-02-28T03:14:09;7.75;;;5.88;;
2129;SDS011;1071;52.544;13.374;2024-02-28T03:16:41;9.50;;;7.30;;
2129;SDS011;1071;52.544;13.374;2024-02-28T03:19:09;10.27;;;7.90;;
2129;SDS011;1071;52.544;13.374;2024-02-28T03:21:36;9.90;;;6.55;;
2129;SDS011;1071;52.544;13.374;2024-02-28T03:24:03;12.85;;;8.77;;
2129;SDS011;1071;52.544;13.374;2024-02-28T03:26:31;8.55;;;7.03;;
2129;SDS011;1071;52.544;13.374;2024-02-28T03:28:59;8.38;;;6.25;;
2129;SDS011;1071;52.544;13.374;2024-02-28T03:31:26;6.28;;;4.93;;
2129;SDS011;1071;52.544;13.374;2024-02-28T03:33:54;8.10;;;6.70;;
2129;SDS011;1071;52.544;13.374;2024-02-28T03:36:24;9.32;;;5.72;;
2129;SDS011;1071;52.544;13.374;2024-02-28T03:38:51;6.63;;;5.40;;
2129;SDS011;1071;52.544;13.374;2024-02-28T03:41:18;9.48;;;6.28;;
2129;SDS011;1071;52.544;13.374;2024-02-28T03:43:45;6.45;;;5.22;;
2129;SDS011;1071;52.544;13.374;2024-02-28T03:46:12;6.78;;;5.25;;
2129;SDS011;1071;52.544;13.374;2024-02-28T03:48:40;7.45;;;5.30;;
2129;SDS011;1071;52.544;13.374;2024-02-28T03:51:08;5.80;;;5.30;;
2129;SDS011;1071;52.544;13.374;2024-02-28T03:53:35;6.10;;;4.70;;
2129;SDS011;1071;52.544;13.374;2024-02-28T03:56:02;5.10;;;4.60;;
2129;SDS011;1071;52.544;13.374;2024-02-28T03:58:30;4.72;;;3.72;;
2129;SDS011;1071;52.544;13.374;2024-02-28T04:00:57;5.10;;;4.40;;
2129;SDS011;1071;52.544;13.374;2024-02-28T04:03:24;5.75;;;4.97;;
2129;SDS011;1071;52.544;13.374;2024-02-28T04:05:51;6.10;;;5.30;;
2129;SDS011;1071;52.544;13.374;2024-02-28T04:08:19;6.10;;;4.63;;
2129;SDS011;1071;52.544;13.374;2024-02-28T04:10:46;7.18;;;4.63;;
2129;SDS011;1071;52.544;13.374;2024-02-28T04:13:15;6.32;;;4.80;;
2129;SDS011;1071;52.544;13.374;2024-02-28T04:15:43;4.60;;;4.18;;
2129;SDS011;1071;52.544;13.374;2024-02-28T04:18:11;5.43;;;4.55;;
2129;SDS011;1071;52.544;13.374;2024-02-28T04:20:41;5.88;;;4.30;;
2129;SDS011;1071;52.544;13.374;2024-02-28T04:23:08;4.85;;;4.40;;
2129;SDS011;1071;52.544;13.374;2024-02-28T04:25:37;7.30;;;4.32;;
2129;SDS011;1071;52.544;13.374;2024-02-28T04:28:05;8.20;;;4.55;;
2129;SDS011;1071;52.544;13.374;2024-02-28T04:30:33;6.28;;;4.90;;
2129;SDS011;1071;52.544;13.374;2024-02-28T04:33:01;5.45;;;4.95;;
2129;SDS011;1071;52.544;13.374;2024-02-28T04:35:28;7.63;;;4.72;;
2129;SDS011;1071;52.544;13.374;2024-02-28T04:37:55;6.30;;;4.55;;
2129;SDS011;1071;52.544;13.374;2024-02-28T04:40:21;6.75;;;4.55;;
2129;SDS011;1071;52.544;13.374;2024-02-28T04:42:50;6.38;;;5.15;;
2129;SDS011;1071;52.544;13.374;2024-02-28T04:45:17;6.75;;;5.85;;
2129;SDS011;1071;52.544;13.374;2024-02-28T04:47:44;6.20;;;5.18;;
2129;SDS011;1071;52.544;13.374;2024-02-28T04:50:11;6.95;;;5.80;;
2129;SDS011;1071;52.544;13.374;2024-02-28T04:52:38;7.68;;;5.97;;
2129;SDS011;1071;52.544;13.374;2024-02-28T04:55:05;7.03;;;5.70;;
2129;SDS011;1071;52.544;13.374;2024-02-28T04:57:33;9.13;;;5.90;;
2129;SDS011;1071;52.544;13.374;2024-02-28T05:00:01;7.70;;;6.50;;
2129;SDS011;1071;52.544;13.374;2024-02-28T05:02:29;10.60;;;6.45;;
2129;SDS011;1071;52.544;13.374;2024-02-28T05:04:56;8.35;;;6.50;;
2129;SDS011;1071;52.544;13.374;2024-02-28T05:07:26;9.57;;;7.43;;
2129;SDS011;1071;52.544;13.374;2024-02-28T05:09:53;9.70;;;6.32;;
2129;SDS011;1071;52.544;13.374;2024-02-28T05:12:20;6.57;;;5.72;;
2129;SDS011;1071;52.544;13.374;2024-02-28T05:14:48;9.60;;;7.18;;
2129;SDS011;1071;52.544;13.374;2024-02-28T05:17:16;7.93;;;6.15;;
2129;SDS011;1071;52.544;13.374;2024-02-28T05:19:43;6.82;;;5.97;;
2129;SDS011;1071;52.544;13.374;2024-02-28T05:22:10;7.40;;;5.82;;
2129;SDS011;1071;52.544;13.374;2024-02-28T05:24:37;6.40;;;5.78;;
2129;SDS011;1071;52.544;13.374;2024-02-28T05:27:04;6.72;;;5.85;;
2129;SDS011;1071;52.544;13.374;2024-02-28T05:29:31;7.95;;;5.85;;
2129;SDS011;1071;52.544;13.374;2024-02-28T05:31:58;9.57;;;6.28;;
2129;SDS011;1071;52.544;13.374;2024-02-28T05:34:26;7.25;;;5.55;;
2129;SDS011;1071;52.544;13.374;2024-02-28T05:36:53;5.30;;;4.80;;
2129;SDS011;1071;52.544;13.374;2024-02-28T05:39:20;6.25;;;5.45;;
2129;SDS011;1071;52.544;13.374;2024-02-28T05:41:47;5.03;;;4.45;;
2129;SDS011;1071;52.544;13.374;2024-02-28T05:44:14;5.43;;;4.00;;
2129;SDS011;1071;52.544;13.374;2024-02-28T05:46:41;5.03;;;4.53;;
2129;SDS011;1071;52.544;13.374;2024-02-28T05:49:08;5.47;;;4.97;;
2129;SDS011;1071;52.544;13.374;2024-02-28T05:51:36;6.13;;;4.50;;
2129;SDS011;1071;52.544;13.374;2024-02-28T05:54:05;6.05;;;4.70;;
2129;SDS011;1071;52.544;13.374;2024-02-28T05:56:33;7.90;;;6.97;;
2129;SDS011;1071;52.544;13.374;2024-02-28T05:59:00;8.93;;;5.32;;
2129;SDS011;1071;52.544;13.374;2024-02-28T06:01:27;7.25;;;5.35;;
2129;SDS011;1071;52.544;13.374;2024-02-28T06:03:54;6.90;;;4.68;;
2129;SDS011;1071;52.544;13.374;2024-02-28T06:06:21;6.63;;;5.25;;
2129;SDS011;1071;52.544;13.374;2024-02-28T06:08:49;6.60;;;5.30;;
2129;SDS011;1071;52.544;13.374;2024-02-28T06:11:17;6.50;;;5.85;;
2129;SDS011;1071;52.544;13.374;2024-02-28T06:13:44;8.90;;;6.50;;
2129;SDS011;1071;52.544;13.374;2024-02-28T06:16:14;10.75;;;8.43;;
2129;SDS011;1071;52.544;13.374;2024-02-28T06:18:42;12.43;;;8.98;;
2129;SDS011;1071;52.544;13.374;2024-02-28T06:21:09;12.30;;;10.57;;
2129;SDS011;1071;52.544;13.374;2024-02-28T06:23:36;14.65;;;11.38;;
2129;SDS011;1071;52.544;13.374;2024-02-28T06:26:05;10.60;;;9.00;;
2129;SDS011;1071;52.544;13.374;2024-02-28T06:28:32;10.40;;;7.70;;
2129;SDS011;1071;52.544;13.374;2024-02-28T06:30:59;7.05;;;6.35;;
2129;SDS011;1071;52.544;13.374;2024-02-28T06:33:26;9.20;;;7.30;;
2129;SDS011;1071;52.544;13.374;2024-02-28T06:35:53;9.50;;;8.02;;
2129;SDS011;1071;52.544;13.374;2024-02-28T06:38:20;11.60;;;8.10;;
2129;SDS011;1071;52.544;13.374;2024-02-28T06:40:48;11.43;;;9.18;;
2129;SDS011;1071;52.544;13.374;2024-02-28T06:43:16;11.13;;;8.68;;
2129;SDS011;1071;52.544;13.374;2024-02-28T06:45:46;9.50;;;8.60;;
2129;SDS011;1071;52.544;13.374;2024-02-28T06:48:13;8.93;;;7.55;;
2129;SDS011;1071;52.544;13.374;2024-02-28T06:50:40;12.05;;;9.00;;
2129;SDS011;1071;52.544;13.374;2024-02-28T06:53:11;10.18;;;8.13;;
2129;SDS011;1071;52.544;13.374;2024-02-28T06:55:38;9.07;;;7.68;;
2129;SDS011;1071;52.544;13.374;2024-02-28T06:58:04;9.55;;;7.30;;
2129;SDS011;1071;52.544;13.374;2024-02-28T07:00:33;14.02;;;10.50;;
2129;SDS011;1071;52.544;13.374;2024-02-28T07:03:00;15.43;;;11.55;;
2129;SDS011;1071;52.544;13.374;2024-02-28T07:05:27;15.38;;;9.98;;
2129;SDS011;1071;52.544;13.374;2024-02-28T07:07:54;13.93;;;9.75;;
2129;SDS011;1071;52.544;13.374;2024-02-28T07:10:21;15.30;;;11.20;;
2129;SDS011;1071;52.544;13.374;2024-02-28T07:12:48;20.50;;;17.42;;
2129;SDS011;1071;52.544;13.374;2024-02-28T07:15:15;12.00;;;10.68;;
2129;SDS011;1071;52.544;13.374;2024-02-28T07:17:45;9.25;;;6.68;;
2129;SDS011;1071;52.544;13.374;2024-02-28T07:20:12;11.75;;;8.30;;
2129;SDS011;1071;52.544;13.374;2024-02-28T07:22:41;8.05;;;7.18;;
2129;SDS011;1071;52.544;13.374;2024-02-28T07:25:09;10.60;;;7.97;;
2129;SDS011;1071;52.544;13.374;2024-02-28T07:27:36;12.88;;;8.52;;
2129;SDS011;1071;52.544;13.374;2024-02-28T07:30:03;10.52;;;7.75;;
2129;SDS011;1071;52.544;13.374;2024-02-28T07:32:31;10.95;;;7.32;;
2129;SDS011;1071;52.544;13.374;2024-02-28T07:35:01;10.60;;;7.43;;
2129;SDS011;1071;52.544;13.374;2024-02-28T07:37:28;10.52;;;7.95;;
2129;SDS011;1071;52.544;13.374;2024-02-28T07:39:55;9.45;;;7.28;;
2129;SDS011;1071;52.544;13.374;2024-02-28T07:42:22;7.13;;;6.43;;
2129;SDS011;1071;52.544;13.374;2024-02-28T07:44:49;7.30;;;6.47;;
2129;SDS011;1071;52.544;13.374;2024-02-28T07:47:21;7.55;;;6.05;;
2129;SDS011;1071;52.544;13.374;2024-02-28T07:49:49;9.48;;;7.20;;
2129;SDS011;1071;52.544;13.374;2024-02-28T07:52:17;11.15;;;8.75;;
2129;SDS011;1071;52.544;13.374;2024-02-28T07:54:44;8.43;;;7.45;;
2129;SDS011;1071;52.544;13.374;2024-02-28T07:57:11;12.73;;;8.98;;
2129;SDS011;1071;52.544;13.374;2024-02-28T07:59:41;8.90;;;7.00;;
2129;SDS011;1071;52.544;13.374;2024-02-28T08:02:08;9.68;;;7.47;;
2129;SDS011;1071;52.544;13.374;2024-02-28T08:04:37;8.40;;;7.10;;
2129;SDS011;1071;52.544;13.374;2024-02-28T08:07:04;9.90;;;7.30;;
2129;SDS011;1071;52.544;13.374;2024-02-28T08:09:32;8.55;;;7.20;;
2129;SDS011;1071;52.544;13.374;2024-02-28T08:11:59;11.95;;;9.55;;
2129;SDS011;1071;52.544;13.374;2024-02-28T08:14:26;13.32;;;8.82;;
2129;SDS011;1071;52.544;13.374;2024-02-28T08:16:54;9.90;;;7.75;;
2129;SDS011;1071;52.544;13.374;2024-02-28T08:19:21;6.95;;;5.55;;
2129;SDS011;1071;52.544;13.374;2024-02-28T08:21:48;10.05;;;6.10;;
2129;SDS011;1071;52.544;13.374;2024-02-28T08:24:16;7.38;;;5.97;;
2129;SDS011;1071;52.544;13.374;2024-02-28T08:26:44;6.97;;;6.15;;
2129;SDS011;1071;52.544;13.374;2024-02-28T08:29:11;7.18;;;5.35;;
2129;SDS011;1071;52.544;13.374;2024-02-28T08:31:41;7.20;;;5.75;;
2129;SDS011;1071;52.544;13.374;2024-02-28T08:34:10;7.25;;;6.28;;
2129;SDS011;1071;52.544;13.374;2024-02-28T08:36:37;8.32;;;6.88;;
2129;SDS011;1071;52.544;13.374;2024-02-28T08:39:04;9.85;;;7.15;;
2129;SDS011;1071;52.544;13.374;2024-02-28T08:41:34;8.23;;;6.45;;
2129;SDS011;1071;52.544;13.374;2024-02-28T08:44:03;9.15;;;7.03;;
2129;SDS011;1071;52.544;13.374;2024-02-28T08:46:33;8.52;;;7.10;;
2129;SDS011;1071;52.544;13.374;2024-02-28T08:49:02;10.75;;;8.45;;
2129;SDS011;1071;52.544;13.374;2024-02-28T08:51:29;14.02;;;10.70;;
2129;SDS011;1071;52.544;13.374;2024-02-28T08:53:56;21.63;;;16.95;;
2129;SDS011;1071;52.544;13.374;2024-02-28T08:56:24;15.05;;;12.82;;
2129;SDS011;1071;52.544;13.374;2024-02-28T08:58:54;14.25;;;11.18;;
2129;SDS011;1071;52.544;13.374;2024-02-28T09:01:23;13.38;;;10.20;;
2129;SDS011;1071;52.544;13.374;2024-02-28T09:03:50;10.38;;;8.77;;
2129;SDS011;1071;52.544;13.374;2024-02-28T09:06:17;16.45;;;8.93;;
2129;SDS011;1071;52.544;13.374;2024-02-28T09:08:44;12.15;;;10.88;;
2129;SDS011;1071;52.544;13.374;2024-02-28T09:11:11;11.60;;;8.80;;
2129;SDS011;1071;52.544;13.374;2024-02-28T09:13:38;13.80;;;10.20;;
2129;SDS011;1071;52.544;13.374;2024-02-28T09:16:06;11.77;;;10.38;;
2129;SDS011;1071;52.544;13.374;2024-02-28T09:18:34;13.18;;;10.90;;
2129;SDS011;1071;52.544;13.374;2024-02-28T09:21:01;12.07;;;9.13;;
2129;SDS011;1071;52.544;13.374;2024-02-28T09:23:31;11.98;;;9.68;;
2129;SDS011;1071;52.544;13.374;2024-02-28T09:25:58;13.75;;;10.20;;
2129;SDS011;1071;52.544;13.374;2024-02-28T09:28:27;12.75;;;8.93;;
2129;SDS011;1071;52.544;13.374;2024-02-28T09:30:54;14.50;;;11.52;;
2129;SDS011;1071;52.544;13.374;2024-02-28T09:33:24;14.07;;;11.57;;
2129;SDS011;1071;52.544;13.374;2024-02-28T09:35:52;11.93;;;9.45;;
2129;SDS011;1071;52.544;13.374;2024-02-28T09:38:21;13.10;;;10.35;;
2129;SDS011;1071;52.544;13.374;2024-02-28T09:40:50;20.73;;;12.00;;
2129;SDS011;1071;52.544;13.374;2024-02-28T09:43:19;21.70;;;14.00;;
2129;SDS011;1071;52.544;13.374;2024-02-28T09:45:52;14.68;;;10.25;;
2129;SDS011;1071;52.544;13.374;2024-02-28T09:48:21;14.13;;;11.45;;
2129;SDS011;1071;52.544;13.374;2024-02-28T09:50:49;23.17;;;18.73;;
2129;SDS011;1071;52.544;13.374;2024-02-28T09:53:17;16.17;;;12.85;;
2129;SDS011;1071;52.544;13.374;2024-02-28T09:55:44;13.43;;;11.13;;
2129;SDS011;1071;52.544;13.374;2024-02-28T09:58:11;18.30;;;12.65;;
2129;SDS011;1071;52.544;13.374;2024-02-28T10:00:38;13.25;;;11.00;;
2129;SDS011;1071;52.544;13.374;2024-02-28T10:03:09;13.82;;;10.57;;
2129;SDS011;1071;52.544;13.374;2024-02-28T10:05:37;13.93;;;10.95;;
2129;SDS011;1071;52.544;13.374;2024-02-28T10:08:05;18.60;;;13.68;;
2129;SDS011;1071;52.544;13.374;2024-02-28T10:10:37;14.63;;;10.55;;
2129;SDS011;1071;52.544;13.374;2024-02-28T10:13:15;13.75;;;10.93;;
2129;SDS011;1071;52.544;13.374;2024-02-28T10:15:45;17.90;;;12.45;;
2129;SDS011;1071;52.544;13.374;2024-02-28T10:18:13;15.82;;;11.25;;
2129;SDS011;1071;52.544;13.374;2024-02-28T10:20:43;16.85;;;12.80;;
2129;SDS011;1071;52.544;13.374;2024-02-28T10:23:10;13.63;;;11.73;;
2129;SDS011;1071;52.544;13.374;2024-02-28T10:25:45;13.60;;;10.90;;
2129;SDS011;1071;52.544;13.374;2024-02-28T10:28:13;15.68;;;10.60;;
2129;SDS011;1071;52.544;13.374;2024-02-28T10:30:44;14.40;;;10.95;;
2129;SDS011;1071;52.544;13.374;2024-02-28T10:33:12;14.95;;;10.80;;
2129;SDS011;1071;52.544;13.374;2024-02-28T10:35:40;15.73;;;12.52;;
2129;SDS011;1071;52.544;13.374;2024-02-28T10:38:10;20.77;;;13.80;;
2129;SDS011;1071;52.544;13.374;2024-02-28T10:40:39;19.55;;;13.93;;
2129;SDS011;1071;52.544;13.374;2024-02-28T10:43:08;18.38;;;14.02;;
2129;SDS011;1071;52.544;13.374;2024-02-28T10:45:36;19.98;;;14.20;;
2129;SDS011;1071;52.544;13.374;2024-02-28T10:48:08;17.70;;;13.48;;
2129;SDS011;1071;52.544;13.374;2024-02-28T10:50:36;19.98;;;14.27;;
2129;SDS011;1071;52.544;13.374;2024-02-28T10:53:03;18.60;;;14.23;;
2129;SDS011;1071;52.544;13.374;2024-02-28T10:55:32;17.10;;;13.50;;
2129;SDS011;1071;52.544;13.374;2024-02-28T10:58:06;17.63;;;14.23;;
2129;SDS011;1071;52.544;13.374;2024-02-28T11:00:37;18.17;;;13.30;;
2129;SDS011;1071;52.544;13.374;2024-02-28T11:03:06;16.02;;;13.07;;
2129;SDS011;1071;52.544;13.374;2024-02-28T11:05:37;18.85;;;13.73;;
2129;SDS011;1071;52.544;13.374;2024-02-28T11:08:07;17.50;;;12.63;;
2129;SDS011;1071;52.544;13.374;2024-02-28T11:10:40;17.13;;;12.32;;
2129;SDS011;1071;52.544;13.374;2024-02-28T11:13:21;15.13;;;12.45;;
2129;SDS011;1071;52.544;13.374;2024-02-28T11:15:53;21.33;;;14.55;;
2129;SDS011;1071;52.544;13.374;2024-02-28T11:18:21;17.50;;;13.45;;
2129;SDS011;1071;52.544;13.374;2024-02-28T11:20:48;20.10;;;16.20;;
2129;SDS011;1071;52.544;13.374;2024-02-28T11:23:17;22.75;;;17.33;;
2129;SDS011;1071;52.544;13.374;2024-02-28T11:25:44;14.95;;;12.18;;
2129;SDS011;1071;52.544;13.374;2024-02-28T11:28:11;16.63;;;11.68;;
2129;SDS011;1071;52.544;13.374;2024-02-28T11:30:38;15.45;;;11.73;;
2129;SDS011;1071;52.544;13.374;2024-02-28T11:33:08;14.73;;;11.25;;
2129;SDS011;1071;52.544;13.374;2024-02-28T11:35:35;12.95;;;10.40;;
2129;SDS011;1071;52.544;13.374;2024-02-28T11:38:03;13.40;;;10.77;;
2129;SDS011;1071;52.544;13.374;2024-02-28T11:40:35;15.13;;;11.45;;
2129;SDS011;1071;52.544;13.374;2024-02-28T11:43:02;12.48;;;9.98;;
2129;SDS011;1071;52.544;13.374;2024-02-28T11:45:29;12.57;;;10.02;;
2129;SDS011;1071;52.544;13.374;2024-02-28T11:47:56;13.88;;;9.75;;
2129;SDS011;1071;52.544;13.374;2024-02-28T11:50:33;12.15;;;10.27;;
2129;SDS011;1071;52.544;13.374;2024-02-28T11:53:00;12.70;;;9.55;;
2129;SDS011;1071;52.544;13.374;2024-02-28T11:55:29;13.55;;;10.77;;
2129;SDS011;1071;52.544;13.374;2024-02-28T11:57:56;11.45;;;9.52;;
2129;SDS011;1071;52.544;13.374;2024-02-28T12:00:26;13.95;;;9.98;;
2129;SDS011;1071;52.544;13.374;2024-02-28T12:03:03;11.80;;;9.25;;
2129;SDS011;1071;52.544;13.374;2024-02-28T12:05:31;10.30;;;8.70;;
2129;SDS011;1071;52.544;13.374;2024-02-28T12:08:00;12.55;;;9.40;;
2129;SDS011;1071;52.544;13.374;2024-02-28T12:10:27;13.20;;;8.85;;
2129;SDS011;1071;52.544;13.374;2024-02-28T12:12:58;10.85;;;8.50;;
2129;SDS011;1071;52.544;13.374;2024-02-28T12:15:27;11.23;;;8.18;;
2129;SDS011;1071;52.544;13.374;2024-02-28T12:17:55;14.43;;;9.50;;
2129;SDS011;1071;52.544;13.374;2024-02-28T12:20:23;11.73;;;8.80;;
2129;SDS011;1071;52.544;13.374;2024-02-28T12:22:50;13.65;;;9.27;;
2129;SDS011;1071;52.544;13.374;2024-02-28T12:25:18;11.88;;;8.20;;
2129;SDS011;1071;52.544;13.374;2024-02-28T12:28:04;10.93;;;9.07;;
2129;SDS011;1071;52.544;13.374;2024-02-28T12:30:39;12.68;;;8.63;;
2129;SDS011;1071;52.544;13.374;2024-02-28T12:33:07;11.68;;;8.63;;
2129;SDS011;1071;52.544;13.374;2024-02-28T12:35:34;9.10;;;8.15;;
2129;SDS011;1071;52.544;13.374;2024-02-28T12:38:02;8.93;;;7.60;;
2129;SDS011;1071;52.544;13.374;2024-02-28T12:40:30;9.05;;;7.10;;
2129;SDS011;1071;52.544;13.374;2024-02-28T12:42:58;8.95;;;7.50;;
2129;SDS011;1071;52.544;13.374;2024-02-28T12:45:26;12.93;;;10.40;;
2129;SDS011;1071;52.544;13.374;2024-02-28T12:47:57;12.80;;;10.02;;
2129;SDS011;1071;52.544;13.374;2024-02-28T12:50:26;12.25;;;10.27;;
2129;SDS011;1071;52.544;13.374;2024-02-28T12:52:53;12.07;;;9.73;;
2129;SDS011;1071;52.544;13.374;2024-02-28T12:55:20;12.95;;;10.07;;
2129;SDS011;1071;52.544;13.374;2024-02-28T12:57:49;12.40;;;9.88;;
2129;SDS011;1071;52.544;13.374;2024-02-28T13:00:20;11.20;;;9.35;;
2129;SDS011;1071;52.544;13.374;2024-02-28T13:02:50;10.20;;;8.27;;
2129;SDS011;1071;52.544;13.374;2024-02-28T13:05:17;11.40;;;8.30;;
2129;SDS011;1071;52.544;13.374;2024-02-28T13:07:48;11.43;;;8.90;;
2129;SDS011;1071;52.544;13.374;2024-02-28T13:10:15;9.38;;;7.75;;
2129;SDS011;1071;52.544;13.374;2024-02-28T13:12:45;11.45;;;9.38;;
2129;SDS011;1071;52.544;13.374;2024-02-28T13:15:27;10.95;;;8.60;;
2129;SDS011;1071;52.544;13.374;2024-02-28T13:17:57;10.05;;;8.93;;
2129;SDS011;1071;52.544;13.374;2024-02-28T13:20:26;11.43;;;10.05;;
2129;SDS011;1071;52.544;13.374;2024-02-28T13:22:54;12.70;;;10.27;;
2129;SDS011;1071;52.544;13.374;2024-02-28T13:25:21;13.32;;;10.40;;
2129;SDS011;1071;52.544;13.374;2024-02-28T13:27:52;11.48;;;9.65;;
2129;SDS011;1071;52.544;13.374;2024-02-28T13:30:19;11.32;;;9.40;;
2129;SDS011;1071;52.544;13.374;2024-02-28T13:32:48;10.65;;;8.90;;
2129;SDS011;1071;52.544;13.374;2024-02-28T13:35:16;10.88;;;9.15;;
2129;SDS011;1071;52.544;13.374;2024-02-28T13:37:45;10.90;;;8.90;;
2129;SDS011;1071;52.544;13.374;2024-02-28T13:40:12;11.10;;;9.85;;
2129;SDS011;1071;52.544;13.374;2024-02-28T13:42:40;12.40;;;11.10;;
2129;SDS011;1071;52.544;13.374;2024-02-28T13:45:08;17.13;;;12.90;;
2129;SDS011;1071;52.544;13.374;2024-02-28T13:47:36;17.45;;;11.82;;
2129;SDS011;1071;52.544;13.374;2024-02-28T13:50:04;18.85;;;13.38;;
2129;SDS011;1071;52.544;13.374;2024-02-28T13:52:34;16.65;;;13.35;;
2129;SDS011;1071;52.544;13.374;2024-02-28T13:55:02;16.42;;;13.77;;
2129;SDS011;1071;52.544;13.374;2024-02-28T13:57:29;15.60;;;13.50;;
2129;SDS011;1071;52.544;13.374;2024-02-28T13:59:56;16.08;;;12.60;;
2129;SDS011;1071;52.544;13.374;2024-02-28T14:02:23;17.23;;;14.10;;
2129;SDS011;1071;52.544;13.374;2024-02-28T14:04:51;17.75;;;14.15;;
2129;SDS011;1071;52.544;13.374;2024-02-28T14:07:20;16.88;;;13.18;;
2129;SDS011;1071;52.544;13.374;2024-02-28T14:09:47;18.27;;;14.18;;
2129;SDS011;1071;52.544;13.374;2024-02-28T14:12:14;16.15;;;13.93;;
2129;SDS011;1071;52.544;13.374;2024-02-28T14:14:42;16.33;;;14.07;;
2129;SDS011;1071;52.544;13.374;2024-02-28T14:17:09;16.52;;;14.02;;
2129;SDS011;1071;52.544;13.374;2024-02-28T14:19:36;17.42;;;15.52;;
2129;SDS011;1071;52.544;13.374;2024-02-28T14:22:05;16.60;;;14.90;;
2129;SDS011;1071;52.544;13.374;2024-02-28T14:27:29;16.48;;;14.43;;
2129;SDS011;1071;52.544;13.374;2024-02-28T14:30:00;17.88;;;15.40;;
2129;SDS011;1071;52.544;13.374;2024-02-28T14:32:32;16.42;;;14.55;;
2129;SDS011;1071;52.544;13.374;2024-02-28T14:35:00;17.15;;;14.73;;
2129;SDS011;1071;52.544;13.374;2024-02-28T14:37:28;18.20;;;15.07;;
2129;SDS011;1071;52.544;13.374;2024-02-28T14:39:56;16.83;;;14.70;;
2129;SDS011;1071;52.544;13.374;2024-02-28T14:42:23;18.85;;;15.30;;
2129;SDS011;1071;52.544;13.374;2024-02-28T14:44:50;18.02;;;13.45;;
2129;SDS011;1071;52.544;13.374;2024-02-28T14:47:21;13.70;;;12.25;;
2129;SDS011;1071;52.544;13.374;2024-02-28T14:49:50;12.77;;;10.80;;
2129;SDS011;1071;52.544;13.374;2024-02-28T14:52:20;15.32;;;11.70;;
2129;SDS011;1071;52.544;13.374;2024-02-28T14:54:47;13.90;;;11.63;;